Time;durP1;ratioP1;P1;durP2;ratioP2;P2;SDS_P1;SDS_P2;PMS_P1;PMS_P2;Temp;Humidity;BMP_temperature;BMP_pressure;BME280_temperature;BME280_humidity;BME280_pressure;Samples;Min_cycle;Max_cycle;Signal;HPM_P1;HPM_P2
2021/03/11 00:00:40;;;;;;;28.32;16.25;;;;;;;-2.46;51.80;100252.92;1743149;82;21198;-40
2021/03/11 00:03:15;;;;;;;29.42;16.25;;;;;;;-2.47;51.44;100250.78;1743019;82;21215;-40
2021/03/11 00:05:43;;;;;;;28.60;16.07;;;;;;;-2.53;51.56;100253.66;1742985;82;21185;-40
2021/03/11 00:08:11;;;;;;;24.65;15.28;;;;;;;-2.53;51.38;100253.66;1742933;82;21028;-40
2021/03/11 00:10:41;;;;;;;27.82;16.93;;;;;;;-2.54;51.50;100251.53;1743059;82;21082;-40
2021/03/11 00:13:09;;;;;;;30.72;16.87;;;;;;;-2.53;51.65;100252.34;1742971;82;21605;-40
2021/03/11 00:15:38;;;;;;;28.17;16.90;;;;;;;-2.51;51.60;100248.89;1770117;80;21445;-40
2021/03/11 00:18:07;;;;;;;27.37;16.03;;;;;;;-2.53;51.91;100244.37;1773840;80;21187;-40
2021/03/11 00:20:36;;;;;;;30.00;16.85;;;;;;;-2.55;51.94;100243.28;1793086;79;22143;-40
2021/03/11 00:23:04;;;;;;;27.93;16.20;;;;;;;-2.58;51.70;100238.49;1711938;83;21169;-40
2021/03/11 00:25:34;;;;;;;27.75;16.50;;;;;;;-2.60;51.69;100239.26;1763626;80;21036;-40
2021/03/11 00:28:04;;;;;;;21.07;12.47;;;;;;;-2.64;52.02;100237.64;1743169;82;21374;-40
2021/03/11 00:30:32;;;;;;;27.95;15.78;;;;;;;-2.62;52.38;100236.59;1743159;82;21585;-40
2021/03/11 00:33:00;;;;;;;28.30;15.40;;;;;;;-2.60;52.46;100241.11;1742917;82;21167;-40
2021/03/11 00:35:28;;;;;;;27.87;16.07;;;;;;;-2.61;52.38;100242.95;1742397;82;21592;-40
2021/03/11 00:37:56;;;;;;;28.23;16.27;;;;;;;-2.65;52.30;100241.34;1737699;81;21175;-40
2021/03/11 00:40:24;;;;;;;28.52;16.73;;;;;;;-2.67;52.30;100242.66;1743048;82;22249;-40
2021/03/11 00:42:52;;;;;;;29.15;16.95;;;;;;;-2.69;52.40;100238.11;1742865;82;21444;-40
2021/03/11 00:45:20;;;;;;;28.00;16.55;;;;;;;-2.69;52.35;100236.78;1742970;82;21468;-40
2021/03/11 00:47:50;;;;;;;27.73;17.37;;;;;;;-2.69;52.35;100236.78;1771572;80;21028;-40
2021/03/11 00:50:22;;;;;;;31.07;16.90;;;;;;;-2.71;52.38;100230.39;1773685;80;21139;-40
2021/03/11 00:52:50;;;;;;;26.02;15.65;;;;;;;-2.76;52.31;100234.32;1773620;80;21439;-40
2021/03/11 00:55:20;;;;;;;24.12;15.95;;;;;;;-2.74;52.03;100231.42;1773434;80;21123;-40
2021/03/11 00:57:48;;;;;;;27.52;16.48;;;;;;;-2.73;52.01;100227.73;1773737;80;21191;-40
2021/03/11 01:00:21;;;;;;;31.75;16.37;;;;;;;-2.70;51.93;100220.58;1773559;80;21202;-40
2021/03/11 01:03:10;;;;;;;28.90;16.67;;;;;;;-2.69;52.05;100216.87;1831524;78;22479;-39
2021/03/11 01:05:46;;;;;;;28.23;16.65;;;;;;;-2.77;52.20;100209.39;1734841;82;21040;-39
2021/03/11 01:08:16;;;;;;;25.68;15.45;;;;;;;-2.78;52.49;100210.43;1741165;82;21226;-39
2021/03/11 01:10:44;;;;;;;28.67;16.90;;;;;;;-2.80;52.66;100203.23;1735290;82;21191;-38
2021/03/11 01:13:12;;;;;;;27.22;16.87;;;;;;;-2.85;52.73;100208.48;1715244;82;21022;-39
2021/03/11 01:15:42;;;;;;;29.00;16.40;;;;;;;-2.83;52.64;100205.07;1714036;83;20988;-39
2021/03/11 01:18:12;;;;;;;28.62;16.02;;;;;;;-2.88;52.39;100203.69;1714194;83;21040;-39
2021/03/11 01:20:41;;;;;;;28.60;16.85;;;;;;;-2.85;51.92;100202.66;1714009;83;21340;-39
2021/03/11 01:23:09;;;;;;;27.85;17.52;;;;;;;-2.86;52.01;100204.26;1713832;83;20989;-39
2021/03/11 01:25:37;;;;;;;31.20;17.90;;;;;;;-2.86;52.16;100194.97;1714061;83;21031;-38
2021/03/11 01:28:05;;;;;;;30.88;17.75;;;;;;;-2.85;52.57;100194.70;1713890;83;21202;-38
2021/03/11 01:30:33;;;;;;;29.72;17.57;;;;;;;-2.87;52.80;100198.67;1714091;83;21608;-39
2021/03/11 01:33:01;;;;;;;29.48;17.17;;;;;;;-2.89;52.84;100203.41;1713920;82;21380;-39
2021/03/11 01:35:29;;;;;;;30.37;16.93;;;;;;;-2.93;53.02;100203.13;1713986;82;21131;-38
2021/03/11 01:37:57;;;;;;;27.80;17.05;;;;;;;-2.93;52.76;100206.30;1713793;82;21028;-39
2021/03/11 01:40:25;;;;;;;31.70;18.27;;;;;;;-2.92;52.45;100210.55;1739464;82;21168;-38
2021/03/11 01:42:53;;;;;;;30.12;16.77;;;;;;;-2.94;52.40;100213.97;1714034;82;21187;-39
2021/03/11 01:45:21;;;;;;;31.50;17.00;;;;;;;-2.95;52.21;100207.09;1713704;83;21403;-38
2021/03/11 01:47:49;;;;;;;27.87;16.60;;;;;;;-2.94;52.26;100215.30;1710548;83;21063;-39
2021/03/11 01:50:17;;;;;;;28.42;17.65;;;;;;;-2.92;52.14;100215.86;1739502;82;21543;-38
2021/03/11 01:52:45;;;;;;;31.17;17.62;;;;;;;-2.90;52.11;100213.74;1713668;83;21186;-39
2021/03/11 01:55:14;;;;;;;33.67;17.52;;;;;;;-2.92;52.06;100214.53;1708860;83;21139;-39
2021/03/11 01:57:42;;;;;;;20.90;12.85;;;;;;;-2.93;52.30;100219.04;1739506;82;21373;-38
2021/03/11 02:00:11;;;;;;;29.45;17.65;;;;;;;-2.97;52.51;100213.96;1713624;83;21201;-38
2021/03/11 02:02:44;;;;;;;33.95;18.67;;;;;;;-3.00;52.66;100208.36;1715838;83;21008;-38
2021/03/11 02:05:15;;;;;;;30.27;17.75;;;;;;;-3.01;53.19;100216.04;1716976;83;21130;-38
2021/03/11 02:07:44;;;;;;;32.90;18.35;;;;;;;-2.99;53.27;100213.40;1717111;83;21178;-39
2021/03/11 02:10:22;;;;;;;31.85;18.55;;;;;;;-2.95;53.24;100219.02;1717003;83;21346;-39
2021/03/11 02:13:27;;;;;;;31.15;18.35;;;;;;;-2.97;53.31;100207.85;1716768;83;21083;-39
2021/03/11 02:16:32;;;;;;;30.43;18.40;;;;;;;-2.98;53.27;100212.88;1716505;83;21114;-40
2021/03/11 02:19:36;;;;;;;33.38;18.55;;;;;;;-3.07;53.58;100219.96;1716546;83;21564;-40
2021/03/11 02:22:42;;;;;;;31.33;20.70;;;;;;;-3.09;53.71;100223.89;1786013;78;27794;-39
2021/03/11 02:25:21;;;;;;;32.90;19.30;;;;;;;-2.99;53.46;100216.57;1755478;80;21258;-39
2021/03/11 02:28:04;;;;;;;33.17;19.80;;;;;;;-2.92;53.21;100216.67;1713851;83;22152;-40
2021/03/11 02:30:32;;;;;;;30.55;18.95;;;;;;;-3.08;53.47;100219.67;1713626;83;21610;-39
2021/03/11 02:33:00;;;;;;;30.88;18.37;;;;;;;-3.20;53.66;100220.35;1688039;85;21036;-39
2021/03/11 02:35:29;;;;;;;33.45;19.70;;;;;;;-3.26;53.88;100227.97;1642373;84;20980;-39
2021/03/11 02:37:56;;;;;;;34.33;19.35;;;;;;;-3.28;54.08;100226.06;1696086;83;20948;-39
2021/03/11 02:40:28;;;;;;;35.63;20.35;;;;;;;-3.34;54.13;100223.63;1695926;83;21495;-39
2021/03/11 02:42:57;;;;;;;34.08;20.90;;;;;;;-3.37;54.37;100231.53;1695971;84;21003;-39
2021/03/11 02:45:27;;;;;;;38.08;20.95;;;;;;;-3.35;54.52;100229.45;1696189;84;21025;-39
2021/03/11 02:47:57;;;;;;;34.73;20.70;;;;;;;-3.34;54.55;100232.35;1695938;84;21074;-39
2021/03/11 02:50:25;;;;;;;;;;;;;;;-3.30;54.46;100236.66;1698654;84;21134;-39
2021/03/11 02:52:53;;;;;;;37.78;21.12;;;;;;;-3.34;54.57;100232.35;1696048;84;21219;-39
2021/03/11 02:55:22;;;;;;;35.63;21.12;;;;;;;-3.49;54.84;100234.84;1665147;84;21177;-39
2021/03/11 02:57:51;;;;;;;40.38;22.93;;;;;;;-3.50;54.93;100231.91;1696060;84;21624;-39
2021/03/11 03:00:20;;;;;;;38.38;21.70;;;;;;;-3.52;55.01;100233.98;1695935;84;21190;-39
2021/03/11 03:02:48;;;;;;;39.55;21.07;;;;;;;-3.45;55.03;100226.67;1696090;84;21185;-39
2021/03/11 03:05:19;;;;;;;35.52;20.40;;;;;;;-3.45;55.03;100226.67;1696009;84;21997;-39
2021/03/11 03:07:47;;;;;;;38.33;23.12;;;;;;;-3.41;54.70;100229.10;1695969;84;21122;-39
2021/03/11 03:10:18;;;;;;;36.45;21.85;;;;;;;-3.37;54.62;100233.37;1695972;84;21161;-39
2021/03/11 03:12:47;;;;;;;39.75;22.62;;;;;;;-3.36;54.63;100227.84;1696009;84;21086;-39
2021/03/11 03:15:14;;;;;;;40.88;22.55;;;;;;;-3.36;54.70;100221.21;1695973;83;21157;-39
2021/03/11 03:17:45;;;;;;;41.42;23.12;;;;;;;-3.32;54.53;100220.98;1696065;83;21687;-39
2021/03/11 03:20:15;;;;;;;41.30;22.50;;;;;;;-3.28;54.40;100225.27;1695728;83;21213;-40
2021/03/11 03:22:43;;;;;;;42.38;23.35;;;;;;;-3.29;54.37;100227.66;1695813;84;21730;-40
2021/03/11 03:25:13;;;;;;;39.03;22.50;;;;;;;-3.30;54.45;100217.58;1695599;83;21120;-39
2021/03/11 03:27:41;;;;;;;40.52;23.25;;;;;;;-3.27;54.45;100217.08;1686258;83;21158;-39
2021/03/11 03:30:15;;;;;;;47.38;23.98;;;;;;;-3.25;54.35;100216.84;1695817;83;21620;-39
2021/03/11 03:32:44;;;;;;;40.52;23.87;;;;;;;-3.23;54.29;100221.34;1695437;84;21193;-39
2021/03/11 03:35:14;;;;;;;47.27;23.62;;;;;;;-3.29;54.38;100222.36;1695360;84;21581;-39
2021/03/11 03:37:42;;;;;;;43.00;19.48;;;;;;;-3.32;54.34;100223.64;1699536;83;21174;-39
2021/03/11 03:40:12;;;;;;;46.08;22.75;;;;;;;-3.37;54.32;100218.27;1724146;83;21146;-39
2021/03/11 03:43:02;;;;;;;50.60;24.85;;;;;;;-3.43;54.30;100219.25;1714306;83;21804;-39
2021/03/11 03:45:34;;;;;;;42.55;23.50;;;;;;;-3.40;54.26;100225.92;1708511;83;21134;-39
2021/03/11 03:48:02;;;;;;;50.88;23.73;;;;;;;-3.44;54.51;100221.66;1719225;83;21169;-40
2021/03/11 03:50:31;;;;;;;50.90;24.95;;;;;;;-3.53;55.17;100225.75;1700147;83;21187;-39
2021/03/11 03:52:58;;;;;;;53.60;24.27;;;;;;;-3.53;55.17;100225.75;1695151;83;21174;-39
2021/03/11 03:55:27;;;;;;;57.27;26.30;;;;;;;-3.58;55.59;100227.01;1685596;85;21220;-39
2021/03/11 03:57:55;;;;;;;56.37;27.10;;;;;;;-3.63;56.02;100227.75;1695344;84;21592;-39
2021/03/11 04:00:25;;;;;;;51.58;26.10;;;;;;;-3.67;56.22;100229.28;1685173;85;21195;-39
2021/03/11 04:02:55;;;;;;;58.25;26.33;;;;;;;-3.67;56.22;100229.28;1695266;84;21651;-39
2021/03/11 04:05:23;;;;;;;50.65;26.52;;;;;;;-3.73;56.19;100230.29;1685618;85;21145;-39
2021/03/11 04:07:52;;;;;;;48.15;26.25;;;;;;;-3.75;56.28;100230.23;1695281;84;21378;-39
2021/03/11 04:10:20;;;;;;;52.23;26.48;;;;;;;-3.81;56.43;100228.55;1685573;85;22202;-39
2021/03/11 04:12:48;;;;;;;51.77;26.75;;;;;;;-3.84;56.45;100228.53;1695067;83;21046;-39
2021/03/11 04:15:16;;;;;;;46.53;26.20;;;;;;;-3.84;56.51;100228.53;1685486;83;21000;-39
2021/03/11 04:17:45;;;;;;;59.03;26.55;;;;;;;-3.88;56.73;100235.37;1695311;83;21119;-39
2021/03/11 04:20:13;;;;;;;46.58;26.23;;;;;;;-3.98;57.53;100237.87;1695124;84;21815;-39
2021/03/11 04:22:41;;;;;;;48.60;27.65;;;;;;;-3.98;57.53;100237.87;1713092;82;21117;-39
2021/03/11 04:25:10;;;;;;;58.20;28.57;;;;;;;-4.05;57.91;100241.99;1709864;83;21135;-39
2021/03/11 04:27:37;;;;;;;47.85;28.50;;;;;;;-4.05;57.91;100241.99;1715233;83;21165;-39
2021/03/11 04:30:07;;;;;;;49.53;28.55;;;;;;;-4.14;58.02;100239.48;1685071;83;21431;-39
2021/03/11 04:32:36;;;;;;;53.20;29.95;;;;;;;-4.26;58.42;100237.42;1715442;83;21196;-39
2021/03/11 04:35:08;;;;;;;54.75;30.30;;;;;;;-4.32;58.73;100239.72;1717295;82;21178;-39
2021/03/11 04:37:37;;;;;;;53.10;29.02;;;;;;;-4.46;59.15;100240.56;1746495;82;21719;-39
2021/03/11 04:40:08;;;;;;;62.15;28.60;;;;;;;-4.49;59.46;100242.34;1720167;82;21125;-39
2021/03/11 04:42:36;;;;;;;55.20;29.25;;;;;;;-4.52;59.64;100242.03;1716796;83;21134;-39
2021/03/11 04:45:05;;;;;;;51.98;29.05;;;;;;;-4.54;59.65;100238.81;1716619;83;21375;-39
2021/03/11 04:47:33;;;;;;;49.67;27.98;;;;;;;-4.54;59.65;100238.81;1686783;83;21140;-39
2021/03/11 04:50:05;;;;;;;50.08;27.70;;;;;;;-4.57;59.97;100245.39;1686543;83;21146;-39
2021/03/11 04:52:36;;;;;;;47.35;26.52;;;;;;;-4.61;60.12;100243.47;1716186;83;21146;-39
2021/03/11 04:55:05;;;;;;;42.45;25.45;;;;;;;-4.56;60.12;100238.27;1716599;83;21455;-39
2021/03/11 04:57:33;;;;;;;46.25;25.62;;;;;;;-4.52;60.08;100248.64;1716873;83;21375;-39
2021/03/11 05:00:02;;;;;;;49.05;25.68;;;;;;;-4.49;60.14;100248.16;1716585;83;21117;-39
2021/03/11 05:02:33;;;;;;;45.73;25.68;;;;;;;-4.47;60.14;100244.77;1716801;83;21585;-39
2021/03/11 05:05:08;;;;;;;42.55;24.90;;;;;;;-4.41;60.13;100245.14;1716749;83;21141;-39
2021/03/11 05:07:36;;;;;;;38.40;23.18;;;;;;;-4.37;60.21;100245.45;1724853;82;21181;-39
2021/03/11 05:10:06;;;;;;;47.95;24.75;;;;;;;-4.29;60.10;100249.82;1746326;82;21279;-39
2021/03/11 05:12:33;;;;;;;39.38;22.77;;;;;;;-4.21;60.02;100252.06;1746503;82;21173;-39
2021/03/11 05:15:01;;;;;;;36.42;21.07;;;;;;;-4.18;60.08;100247.63;1746356;82;21436;-39
2021/03/11 05:17:29;;;;;;;40.03;21.50;;;;;;;-4.05;60.21;100247.29;1746536;82;21682;-39
2021/03/11 05:19:57;;;;;;;34.95;20.72;;;;;;;-4.05;60.21;100247.29;1746400;82;21150;-39
2021/03/11 05:22:25;;;;;;;35.73;20.15;;;;;;;-4.02;60.42;100253.97;1746400;82;21416;-39
2021/03/11 05:24:54;;;;;;;41.55;20.85;;;;;;;-3.95;60.47;100256.72;1746329;82;21142;-39
2021/03/11 05:27:23;;;;;;;36.70;21.27;;;;;;;-3.93;60.56;100260.97;1746625;82;21134;-39
2021/03/11 05:29:52;;;;;;;36.40;20.15;;;;;;;-3.87;60.64;100254.72;1746369;82;21150;-39
2021/03/11 05:32:20;;;;;;;39.23;21.10;;;;;;;-3.73;60.54;100263.92;1728679;82;21144;-39
2021/03/11 05:34:48;;;;;;;35.95;20.08;;;;;;;-3.66;60.57;100260.56;1716616;83;21371;-39
2021/03/11 05:37:16;;;;;;;36.25;21.95;;;;;;;-3.56;60.26;100263.36;1716577;82;21158;-39
2021/03/11 05:39:44;;;;;;;40.25;21.50;;;;;;;-3.50;60.54;100269.02;1716682;83;21059;-39
2021/03/11 05:42:12;;;;;;;39.67;20.55;;;;;;;-3.41;60.51;100263.56;1716683;83;21588;-39
2021/03/11 05:44:40;;;;;;;42.93;21.40;;;;;;;-3.33;60.24;100264.45;1716653;83;21146;-39
2021/03/11 05:47:08;;;;;;;44.98;21.17;;;;;;;-3.29;60.24;100269.53;1716576;83;21393;-39
2021/03/11 05:51:48;;;;;;;42.67;21.82;;;;;;;-3.09;59.79;100272.44;1775905;79;22407;-38
2021/03/11 05:54:16;;;;;;;39.80;21.30;;;;;;;-3.12;59.76;100273.47;1748595;82;21008;-39
2021/03/11 05:56:44;;;;;;;40.78;21.62;;;;;;;-3.00;59.33;100270.70;1748407;82;21204;-38
2021/03/11 05:59:11;;;;;;;37.95;21.15;;;;;;;-2.85;59.40;100268.19;1748397;82;21994;-38
2021/03/11 06:01:39;;;;;;;39.63;21.65;;;;;;;-2.77;58.83;100261.13;1748537;82;21736;-38
2021/03/11 06:04:07;;;;;;;35.43;19.40;;;;;;;-2.72;58.94;100265.16;1748335;82;21008;-39
2021/03/11 06:06:35;;;;;;;32.13;18.23;;;;;;;-2.63;58.24;100272.95;1748491;82;21568;-38
2021/03/11 06:09:03;;;;;;;32.70;17.75;;;;;;;-2.55;57.90;100286.28;1748422;82;21279;-38
2021/03/11 06:11:33;;;;;;;33.18;17.92;;;;;;;-2.45;57.32;100283.73;1748454;82;22131;-38
2021/03/11 06:14:01;;;;;;;30.88;17.45;;;;;;;-2.32;57.21;100272.69;1743544;82;21036;-38
2021/03/11 06:16:31;;;;;;;31.35;16.42;;;;;;;-2.23;56.40;100282.60;1718630;83;21190;-38
2021/03/11 06:18:59;;;;;;;21.40;12.98;;;;;;;-2.18;55.95;100289.84;1718781;83;21123;-38
2021/03/11 06:21:31;;;;;;;32.38;16.37;;;;;;;-2.17;55.28;100295.92;1718611;83;21422;-39
2021/03/11 06:23:59;;;;;;;27.40;15.38;;;;;;;-2.17;55.15;100298.58;1721807;82;21130;-38
2021/03/11 06:26:27;;;;;;;27.35;15.63;;;;;;;-2.18;54.98;100291.70;1748352;82;21145;-38
2021/03/11 06:28:55;;;;;;;26.30;14.93;;;;;;;-2.13;54.94;100295.17;1748326;82;21126;-39
2021/03/11 06:31:28;;;;;;;26.87;14.98;;;;;;;-2.05;55.27;100299.23;1748496;81;21613;-39
2021/03/11 06:33:58;;;;;;;26.55;15.13;;;;;;;-1.96;55.43;100304.34;1748372;82;21482;-38
2021/03/11 06:36:36;;;;;;;27.15;14.60;;;;;;;-1.75;54.85;100300.80;1811455;78;22885;-39
2021/03/11 06:39:10;;;;;;;22.80;14.03;;;;;;;-1.71;54.30;100299.23;1710447;82;21569;-38
2021/03/11 06:41:44;;;;;;;24.07;14.40;;;;;;;-1.62;53.50;100303.01;1711458;83;21375;-39
2021/03/11 06:44:12;;;;;;;25.60;13.83;;;;;;;-1.59;53.11;100306.47;1739505;82;21612;-39
2021/03/11 06:46:58;;;;;;;25.45;14.98;;;;;;;-1.56;53.35;100303.32;1727238;82;21068;-38
2021/03/11 06:49:27;;;;;;;23.87;14.43;;;;;;;-1.48;53.44;100301.50;1718733;82;21573;-39
2021/03/11 06:52:15;;;;;;;24.82;14.43;;;;;;;-1.37;53.46;100306.35;1770149;81;20971;-39
2021/03/11 06:55:07;;;;;;;26.33;14.58;;;;;;;-1.23;53.33;100301.37;1738321;82;21289;-39
2021/03/11 06:57:40;;;;;;;22.58;14.38;;;;;;;-1.05;52.99;100308.89;1743323;82;21004;-39
2021/03/11 07:00:20;;;;;;;24.60;14.40;;;;;;;-0.95;52.43;100315.59;1769960;81;21032;-39
2021/03/11 07:03:03;;;;;;;;;;;;;;;-0.91;52.20;100319.33;1745953;82;21154;-38
2021/03/11 07:05:28;;;;;;;22.17;13.40;;;;;;;-0.82;52.07;100315.10;1743305;82;20319;-39
2021/03/11 07:08:06;;;;;;;25.57;12.65;;;;;;;-0.82;51.36;100320.42;1743410;82;21432;-39
2021/03/11 07:10:36;;;;;;;23.50;11.95;;;;;;;-0.77;51.68;100324.44;1769991;80;21580;-39
2021/03/11 07:13:04;;;;;;;20.95;11.53;;;;;;;-0.68;50.96;100322.09;1743539;82;21573;-39
2021/03/11 07:15:35;;;;;;;17.92;11.10;;;;;;;-0.59;50.79;100322.66;1743292;82;21174;-39
2021/03/11 07:18:10;;;;;;;15.98;10.63;;;;;;;-0.47;49.90;100317.88;1768682;81;21103;-39
2021/03/11 07:20:37;;;;;;;21.50;11.18;;;;;;;-0.36;49.63;100324.03;1713850;83;21380;-39
2021/03/11 07:23:10;;;;;;;19.45;11.85;;;;;;;-0.24;49.33;100325.13;1739300;82;21034;-39
2021/03/11 07:25:48;;;;;;;17.87;10.25;;;;;;;-0.15;49.47;100328.87;1714643;82;21043;-39
2021/03/11 07:28:27;;;;;;;17.50;10.88;;;;;;;-0.02;49.58;100324.34;1713671;83;21167;-39
2021/03/11 07:30:59;;;;;;;16.57;10.48;;;;;;;0.19;49.52;100325.95;1713640;83;21174;-39
2021/03/11 07:33:31;;;;;;;17.75;10.20;;;;;;;0.45;48.79;100318.71;1708475;84;21287;-39
2021/03/11 07:36:08;;;;;;;16.02;9.15;;;;;;;0.65;47.40;100329.88;1803516;78;23397;-39
2021/03/11 07:38:37;;;;;;;15.08;9.60;;;;;;;0.70;46.40;100320.53;1782687;79;20925;-39
2021/03/11 07:41:06;;;;;;;16.07;9.70;;;;;;;0.72;46.66;100323.75;1783985;80;21352;-39
2021/03/11 07:43:35;;;;;;;13.00;9.10;;;;;;;0.86;46.21;100332.25;1784036;80;21023;-39
2021/03/11 07:46:06;;;;;;;14.50;9.35;;;;;;;1.03;45.05;100320.43;1790569;79;21313;-39
2021/03/11 07:48:34;;;;;;;14.28;9.03;;;;;;;1.14;43.89;100310.78;1749210;82;21035;-39
2021/03/11 07:51:04;;;;;;;15.75;9.28;;;;;;;1.21;44.96;100319.28;1780152;80;21000;-39
2021/03/11 07:53:32;;;;;;;12.47;8.60;;;;;;;1.40;44.85;100314.67;1749338;82;21382;-39
2021/03/11 07:56:01;;;;;;;12.33;7.45;;;;;;;1.65;43.25;100305.16;1755926;80;21193;-39
2021/03/11 07:58:30;;;;;;;12.23;8.00;;;;;;;1.84;41.93;100308.76;1745490;82;20987;-39
2021/03/11 08:01:03;;;;;;;13.10;8.15;;;;;;;2.01;42.30;100301.70;1749234;82;21138;-39
2021/03/11 08:03:31;;;;;;;13.68;8.63;;;;;;;2.20;41.86;100305.28;1712943;83;21165;-39
2021/03/11 08:06:21;;;;;;;13.53;8.73;;;;;;;2.37;40.99;100311.00;1749176;82;21433;-39
2021/03/11 08:09:00;;;;;;;11.30;7.95;;;;;;;2.58;40.01;100304.38;1831259;78;22706;-39
2021/03/11 08:11:41;;;;;;;14.95;9.48;;;;;;;2.57;39.99;100301.98;1803923;79;21310;-39
2021/03/11 08:14:22;;;;;;;14.15;9.10;;;;;;;2.71;40.35;100306.92;1736626;82;22290;-39
2021/03/11 08:16:52;;;;;;;14.78;8.70;;;;;;;2.84;39.61;100299.56;1743268;82;21060;-39
2021/03/11 08:19:38;;;;;;;13.48;8.90;;;;;;;2.97;39.62;100296.73;1743587;82;21657;-40
2021/03/11 08:22:14;;;;;;;13.15;8.98;;;;;;;3.02;38.54;100295.33;1837304;76;23296;-39
2021/03/11 08:24:47;;;;;;;13.35;9.28;;;;;;;2.95;37.95;100294.89;1746863;82;21007;-39
2021/03/11 08:27:34;;;;;;;14.78;8.13;;;;;;;2.89;38.86;100284.78;1762153;81;21698;-39
2021/03/11 08:30:04;;;;;;;14.47;9.08;;;;;;;2.89;38.05;100286.66;1816640;79;21020;-39
2021/03/11 08:32:50;;;;;;;14.45;8.85;;;;;;;2.89;38.77;100276.74;1816894;79;21022;-39
2021/03/11 08:35:35;;;;;;;13.22;8.45;;;;;;;2.91;39.22;100279.91;1816695;78;20928;-39
2021/03/11 08:38:32;;;;;;;13.83;8.95;;;;;;;2.99;39.16;100286.54;1796191;79;21150;-39
2021/03/11 08:41:06;;;;;;;13.68;8.08;;;;;;;3.02;39.22;100281.94;1784514;80;21174;-40
2021/03/11 08:43:42;;;;;;;10.55;7.30;;;;;;;3.11;38.62;100282.09;1784608;80;21031;-39
2021/03/11 08:46:22;;;;;;;10.93;6.80;;;;;;;3.26;37.20;100284.58;1784626;79;21011;-39
2021/03/11 08:49:00;;;;;;;10.00;6.53;;;;;;;3.41;37.01;100270.43;1835879;78;22707;-39
2021/03/11 08:51:34;;;;;;;11.65;6.55;;;;;;;3.51;36.46;100281.55;1808237;79;21135;-39
2021/03/11 08:54:06;;;;;;;9.70;6.20;;;;;;;3.66;36.49;100280.00;1808225;77;21280;-39
2021/03/11 08:56:36;;;;;;;8.18;6.15;;;;;;;3.88;36.55;100270.79;1808209;79;21027;-41
2021/03/11 08:59:13;;;;;;;;;;;;;;;4.15;34.92;100267.95;1810906;79;21621;-40
2021/03/11 09:01:54;;;;;;;10.15;6.85;;;;;;;4.25;34.76;100277.17;1808204;79;20189;-41
2021/03/11 09:04:37;;;;;;;9.65;5.72;;;;;;;4.29;35.14;100272.27;1809233;78;22573;-39
2021/03/11 09:07:30;;;;;;;8.28;5.70;;;;;;;4.29;34.48;100266.89;1779380;80;21422;-39
2021/03/11 09:09:59;;;;;;;8.90;5.20;;;;;;;4.34;34.55;100270.83;1784091;80;22243;-39
2021/03/11 09:12:36;;;;;;;9.90;5.95;;;;;;;4.57;34.24;100273.64;1783879;80;20979;-39
2021/03/11 09:15:08;;;;;;;11.05;6.28;;;;;;;4.83;34.27;100282.02;1806363;79;21027;-39
2021/03/11 09:17:37;;;;;;;8.85;5.78;;;;;;;5.01;34.56;100284.59;1816190;79;20956;-39
2021/03/11 09:20:14;;;;;;;8.85;5.92;;;;;;;5.14;33.88;100277.60;1816219;79;21023;-39
2021/03/11 09:22:47;;;;;;;8.75;5.67;;;;;;;5.40;33.56;100275.17;1816129;79;21194;-39
2021/03/11 09:25:24;;;;;;;9.43;6.47;;;;;;;5.65;32.63;100295.59;1816159;79;21624;-39
2021/03/11 09:28:04;;;;;;;10.30;7.12;;;;;;;5.70;32.09;100278.53;1749160;82;21290;-39
2021/03/11 09:30:37;;;;;;;10.18;7.08;;;;;;;5.58;31.45;100274.23;1780286;80;21130;-39
2021/03/11 09:33:20;;;;;;;13.05;7.22;;;;;;;5.54;32.47;100276.73;1749171;82;21539;-39
2021/03/11 09:35:50;;;;;;;10.25;7.33;;;;;;;5.67;31.71;100278.58;1780052;80;21012;-39
2021/03/11 09:38:23;;;;;;;14.35;6.70;;;;;;;5.78;31.73;100267.58;1745684;82;21120;-39
2021/03/11 09:41:03;;;;;;;14.30;7.78;;;;;;;5.90;31.01;100270.02;1744488;82;21615;-39
2021/03/11 09:43:37;;;;;;;10.68;6.47;;;;;;;5.99;31.13;100280.30;1746457;82;21609;-39
2021/03/11 09:46:13;;;;;;;10.70;7.20;;;;;;;6.08;31.47;100267.69;1780120;80;21557;-39
2021/03/11 09:48:52;;;;;;;12.82;7.95;;;;;;;6.17;30.31;100269.62;1780030;80;21205;-39
2021/03/11 09:51:26;;;;;;;14.40;8.25;;;;;;;6.12;30.81;100269.20;1780217;80;21605;-39
2021/03/11 09:53:58;;;;;;;10.45;7.97;;;;;;;6.13;30.41;100277.53;1780000;80;21150;-39
2021/03/11 09:56:32;;;;;;;12.80;8.15;;;;;;;6.18;30.21;100272.02;1779840;80;21593;-39
2021/03/11 09:59:06;;;;;;;15.55;8.70;;;;;;;6.16;30.09;100280.94;1745445;82;21154;-39
2021/03/11 10:01:42;;;;;;;14.73;8.28;;;;;;;6.05;30.40;100277.70;1689161;81;21436;-40
2021/03/11 10:04:19;;;;;;;12.10;7.00;;;;;;;5.93;30.87;100273.44;1725324;82;21183;-40
2021/03/11 10:06:59;;;;;;;11.68;7.37;;;;;;;5.95;31.65;100275.83;1803034;79;21131;-39
2021/03/11 10:09:39;;;;;;;10.58;6.92;;;;;;;5.94;31.80;100271.54;1803001;79;21111;-39
2021/03/11 10:12:08;;;;;;;10.35;6.60;;;;;;;5.93;31.81;100269.39;1803189;79;21541;-39
2021/03/11 10:14:37;;;;;;;8.58;5.70;;;;;;;6.08;31.68;100263.64;1788824;79;22316;-39
2021/03/11 10:17:06;;;;;;;8.38;5.55;;;;;;;6.27;30.38;100254.01;1769787;81;21170;-39
2021/03/11 10:19:40;;;;;;;7.97;4.80;;;;;;;6.38;30.96;100255.34;1769694;81;21155;-39
2021/03/11 10:22:10;;;;;;;10.70;5.22;;;;;;;6.55;30.44;100255.41;1769646;81;21131;-39
2021/03/11 10:24:53;;;;;;;6.58;4.90;;;;;;;6.70;30.64;100251.51;1771271;80;21140;-39
2021/03/11 10:27:30;;;;;;;8.53;5.22;;;;;;;6.82;29.90;100252.27;1781007;80;21156;-39
2021/03/11 10:30:21;;;;;;;7.20;5.08;;;;;;;6.82;29.58;100247.68;1780718;80;21021;-39
2021/03/11 10:32:55;;;;;;;6.30;4.37;;;;;;;6.67;29.32;100250.00;1780970;80;20970;-39
2021/03/11 10:35:38;;;;;;;6.47;4.90;;;;;;;6.52;29.74;100239.88;1780914;80;21186;-39
2021/03/11 10:38:18;;;;;;;6.58;4.80;;;;;;;6.50;30.00;100258.79;1780826;79;21035;-40
2021/03/11 10:40:47;;;;;;;6.00;4.47;;;;;;;6.45;30.09;100244.91;1780962;80;21351;-39
2021/03/11 10:43:22;;;;;;;5.90;4.22;;;;;;;6.61;29.90;100249.89;1780970;80;21149;-39
2021/03/11 10:45:50;;;;;;;6.05;4.22;;;;;;;6.75;28.29;100234.41;1780858;80;21149;-39
2021/03/11 10:48:18;;;;;;;6.15;4.53;;;;;;;6.77;27.97;100238.94;1780949;80;21188;-39
2021/03/11 10:50:49;;;;;;;5.72;4.17;;;;;;;6.75;27.96;100237.89;1780987;80;21560;-39
2021/03/11 10:53:21;;;;;;;7.62;5.28;;;;;;;6.80;28.11;100232.91;1780961;80;22051;-39
2021/03/11 10:55:50;;;;;;;6.22;4.90;;;;;;;6.86;28.75;100227.63;1780807;80;20985;-39
2021/03/11 10:58:23;;;;;;;6.80;5.10;;;;;;;6.94;28.85;100214.16;1780913;80;21997;-39
2021/03/11 11:01:07;;;;;;;7.37;5.45;;;;;;;7.14;29.12;100216.02;1779712;80;21179;-39
2021/03/11 11:03:37;;;;;;;7.20;4.90;;;;;;;7.41;28.93;100217.86;1786614;79;21105;-41
2021/03/11 11:06:06;;;;;;;6.72;4.08;;;;;;;7.61;26.81;100215.62;1718805;83;21273;-40
2021/03/11 11:08:35;;;;;;;7.60;5.40;;;;;;;7.69;26.62;100206.20;1796991;79;20981;-41
2021/03/11 11:11:03;;;;;;;8.78;5.60;;;;;;;7.88;25.88;100211.25;1718731;83;21052;-40
2021/03/11 11:13:31;;;;;;;9.05;5.47;;;;;;;7.74;26.71;100198.49;1796901;79;21131;-40
2021/03/11 11:15:58;;;;;;;8.90;5.90;;;;;;;7.61;26.78;100202.14;1718733;83;21139;-40
2021/03/11 11:18:26;;;;;;;6.92;5.28;;;;;;;7.52;27.04;100195.95;1797090;79;21303;-40
2021/03/11 11:20:57;;;;;;;8.35;5.20;;;;;;;7.46;27.22;100191.83;1718712;83;21206;-40
2021/03/11 11:23:24;;;;;;;9.20;5.55;;;;;;;7.50;27.39;100188.20;1797071;79;21155;-40
2021/03/11 11:25:53;;;;;;;7.37;5.70;;;;;;;7.68;27.11;100193.02;1716305;82;21186;-40
2021/03/11 11:28:21;;;;;;;10.90;6.55;;;;;;;7.75;26.88;100183.86;1796916;79;21085;-41
2021/03/11 11:30:49;;;;;;;8.90;6.15;;;;;;;7.63;27.40;100189.13;1796981;79;21436;-40
2021/03/11 11:33:18;;;;;;;10.05;5.75;;;;;;;7.48;27.15;100183.67;1797077;79;21581;-40
2021/03/11 11:35:51;;;;;;;10.63;6.45;;;;;;;7.42;27.33;100181.68;1791307;79;20961;-40
2021/03/11 11:38:19;;;;;;;9.93;7.00;;;;;;;7.54;27.59;100181.05;1770067;79;21149;-41
2021/03/11 11:40:47;;;;;;;10.20;6.15;;;;;;;7.61;27.24;100180.55;1718768;83;21152;-40